sensor_id;sensor_type;location;lat;lon;timestamp;pressure;altitude;pressure_sealevel;temperature;humidity
65054;BME280;51639;47.828;35.038;2023-11-19T00:03:44;99955.25;;;7.45;100.00
65054;BME280;51639;47.828;35.038;2023-11-19T00:18:46;99971.28;;;7.63;100.00
65054;BME280;51639;47.828;35.038;2023-11-19T00:33:48;99898.97;;;7.40;100.00
65054;BME280;51639;47.828;35.038;2023-11-19T00:48:52;99934.09;;;7.36;100.00
65054;BME280;51639;47.828;35.038;2023-11-19T01:03:54;99941.44;;;7.36;100.00
65054;BME280;51639;47.828;35.038;2023-11-19T01:18:57;99926.72;;;7.44;100.00
65054;BME280;51639;47.828;35.038;2023-11-19T01:34:17;99919.97;;;7.22;100.00
65054;BME280;51639;47.828;35.038;2023-11-19T01:49:19;99877.56;;;7.22;100.00
65054;BME280;51639;47.828;35.038;2023-11-19T02:04:22;99863.84;;;7.02;100.00
65054;BME280;51639;47.828;35.038;2023-11-19T02:19:24;99852.38;;;6.91;100.00
65054;BME280;51639;47.828;35.038;2023-11-19T02:34:26;99824.59;;;6.94;100.00
65054;BME280;51639;47.828;35.038;2023-11-19T02:49:28;99819.59;;;6.93;100.00
65054;BME280;51639;47.828;35.038;2023-11-19T03:04:30;99831.91;;;6.97;100.00
65054;BME280;51639;47.828;35.038;2023-11-19T03:19:32;99807.19;;;7.36;100.00
65054;BME280;51639;47.828;35.038;2023-11-19T03:34:34;99784.25;;;7.17;100.00
65054;BME280;51639;47.828;35.038;2023-11-19T03:49:36;99768.72;;;7.59;100.00
65054;BME280;51639;47.828;35.038;2023-11-19T04:04:38;99737.53;;;7.55;100.00
65054;BME280;51639;47.828;35.038;2023-11-19T04:19:40;99728.28;;;7.56;100.00
65054;BME280;51639;47.828;35.038;2023-11-19T04:34:43;99708.13;;;7.60;100.00
65054;BME280;51639;47.828;35.038;2023-11-19T04:49:45;99714.81;;;7.79;100.00
65054;BME280;51639;47.828;35.038;2023-11-19T05:04:50;99716.41;;;7.76;100.00
65054;BME280;51639;47.828;35.038;2023-11-19T05:19:52;99737.19;;;7.79;100.00
65054;BME280;51639;47.828;35.038;2023-11-19T05:34:54;99728.25;;;7.82;100.00
65054;BME280;51639;47.828;35.038;2023-11-19T05:49:56;99749.00;;;7.89;100.00
65054;BME280;51639;47.828;35.038;2023-11-19T06:04:58;99743.66;;;8.12;100.00
65054;BME280;51639;47.828;35.038;2023-11-19T06:20:00;99776.50;;;8.11;100.00
65054;BME280;51639;47.828;35.038;2023-11-19T06:35:02;99778.28;;;8.21;100.00
65054;BME280;51639;47.828;35.038;2023-11-19T06:50:06;99819.28;;;8.46;100.00
65054;BME280;51639;47.828;35.038;2023-11-19T07:05:09;99801.69;;;8.58;100.00
65054;BME280;51639;47.828;35.038;2023-11-19T07:20:11;99766.22;;;8.52;100.00
65054;BME280;51639;47.828;35.038;2023-11-19T07:35:17;99754.34;;;8.70;100.00
65054;BME280;51639;47.828;35.038;2023-11-19T07:50:20;99730.63;;;8.54;100.00
65054;BME280;51639;47.828;35.038;2023-11-19T08:05:23;99695.16;;;8.72;100.00
65054;BME280;51639;47.828;35.038;2023-11-19T08:20:26;99649.97;;;8.69;100.00
65054;BME280;51639;47.828;35.038;2023-11-19T08:35:29;99643.03;;;8.87;100.00
65054;BME280;51639;47.828;35.038;2023-11-19T08:50:31;99617.63;;;8.62;100.00
65054;BME280;51639;47.828;35.038;2023-11-19T09:05:34;99584.34;;;8.65;100.00
65054;BME280;51639;47.828;35.038;2023-11-19T09:20:36;99555.88;;;8.57;100.00
65054;BME280;51639;47.828;35.038;2023-11-19T09:35:40;99538.28;;;8.68;100.00
65054;BME280;51639;47.828;35.038;2023-11-19T09:50:43;99504.22;;;8.87;100.00
65054;BME280;51639;47.828;35.038;2023-11-19T10:05:48;99473.75;;;8.67;100.00
65054;BME280;51639;47.828;35.038;2023-11-19T10:20:50;99439.59;;;8.73;100.00
65054;BME280;51639;47.828;35.038;2023-11-19T10:35:55;99393.22;;;8.54;100.00
65054;BME280;51639;47.828;35.038;2023-11-19T10:51:06;99359.25;;;8.70;100.00
65054;BME280;51639;47.828;35.038;2023-11-19T11:06:13;99313.41;;;8.79;100.00
65054;BME280;51639;47.828;35.038;2023-11-19T11:21:20;99294.13;;;8.77;100.00
65054;BME280;51639;47.828;35.038;2023-11-19T11:36:25;99329.66;;;8.46;100.00
65054;BME280;51639;47.828;35.038;2023-11-19T12:07:03;99321.78;;;8.84;100.00
65054;BME280;51639;47.828;35.038;2023-11-19T12:22:10;99305.56;;;8.68;100.00
65054;BME280;51639;47.828;35.038;2023-11-19T12:37:12;99308.88;;;8.43;100.00
65054;BME280;51639;47.828;35.038;2023-11-19T12:52:15;99313.28;;;7.81;100.00
65054;BME280;51639;47.828;35.038;2023-11-19T13:07:21;99282.28;;;8.06;100.00
65054;BME280;51639;47.828;35.038;2023-11-19T13:22:23;99264.97;;;7.67;100.00
65054;BME280;51639;47.828;35.038;2023-11-19T13:37:25;99266.19;;;7.27;100.00
65054;BME280;51639;47.828;35.038;2023-11-19T13:52:29;99247.22;;;7.10;100.00
65054;BME280;51639;47.828;35.038;2023-11-19T14:07:31;99235.13;;;7.18;100.00
65054;BME280;51639;47.828;35.038;2023-11-19T14:22:33;99239.13;;;6.91;100.00
65054;BME280;51639;47.828;35.038;2023-11-19T14:37:35;99275.78;;;6.65;100.00
65054;BME280;51639;47.828;35.038;2023-11-19T14:52:38;99289.06;;;6.56;100.00
65054;BME280;51639;47.828;35.038;2023-11-19T15:07:40;99313.53;;;6.41;100.00
65054;BME280;51639;47.828;35.038;2023-11-19T15:22:42;99309.41;;;6.10;100.00
65054;BME280;51639;47.828;35.038;2023-11-19T15:37:48;99302.75;;;5.88;100.00
65054;BME280;51639;47.828;35.038;2023-11-19T15:52:50;99286.59;;;5.88;100.00
65054;BME280;51639;47.828;35.038;2023-11-19T16:07:52;99276.25;;;5.82;100.00
65054;BME280;51639;47.828;35.038;2023-11-19T16:22:55;99250.59;;;5.74;100.00
65054;BME280;51639;47.828;35.038;2023-11-19T16:37:57;99229.09;;;5.71;100.00
65054;BME280;51639;47.828;35.038;2023-11-19T16:52:59;99198.25;;;5.75;100.00
65054;BME280;51639;47.828;35.038;2023-11-19T17:08:03;99189.47;;;5.98;100.00
65054;BME280;51639;47.828;35.038;2023-11-19T17:23:06;99186.25;;;6.07;100.00
65054;BME280;51639;47.828;35.038;2023-11-19T17:38:10;99156.78;;;5.96;100.00
65054;BME280;51639;47.828;35.038;2023-11-19T17:53:15;99127.91;;;6.20;100.00
65054;BME280;51639;47.828;35.038;2023-11-19T18:08:19;99106.78;;;6.38;100.00
65054;BME280;51639;47.828;35.038;2023-11-19T18:23:24;99112.59;;;6.37;100.00
65054;BME280;51639;47.828;35.038;2023-11-19T18:38:26;99093.16;;;6.45;100.00
65054;BME280;51639;47.828;35.038;2023-11-19T18:53:31;99068.56;;;6.43;100.00
65054;BME280;51639;47.828;35.038;2023-11-19T19:08:34;99051.84;;;6.32;100.00
65054;BME280;51639;47.828;35.038;2023-11-19T19:23:37;99033.53;;;6.24;100.00
65054;BME280;51639;47.828;35.038;2023-11-19T19:38:39;99011.06;;;6.30;100.00
65054;BME280;51639;47.828;35.038;2023-11-19T19:53:42;98986.84;;;6.46;100.00
65054;BME280;51639;47.828;35.038;2023-11-19T20:08:45;98971.22;;;6.58;100.00
65054;BME280;51639;47.828;35.038;2023-11-19T20:23:49;98963.66;;;6.69;100.00
65054;BME280;51639;47.828;35.038;2023-11-19T20:38:51;98947.66;;;6.78;100.00
65054;BME280;51639;47.828;35.038;2023-11-19T20:53:53;98945.13;;;6.87;100.00
65054;BME280;51639;47.828;35.038;2023-11-19T21:08:55;98924.97;;;6.59;100.00
65054;BME280;51639;47.828;35.038;2023-11-19T21:23:58;98919.00;;;6.84;100.00
65054;BME280;51639;47.828;35.038;2023-11-19T21:39:01;98918.66;;;6.98;100.00
65054;BME280;51639;47.828;35.038;2023-11-19T21:54:03;98925.47;;;6.87;100.00
65054;BME280;51639;47.828;35.038;2023-11-19T22:09:05;98911.59;;;7.04;100.00
65054;BME280;51639;47.828;35.038;2023-11-19T22:24:09;98918.50;;;7.05;100.00
65054;BME280;51639;47.828;35.038;2023-11-19T22:39:11;98901.09;;;7.23;100.00
65054;BME280;51639;47.828;35.038;2023-11-19T22:54:14;98879.69;;;6.99;100.00
65054;BME280;51639;47.828;35.038;2023-11-19T23:09:16;98853.66;;;6.93;100.00
65054;BME280;51639;47.828;35.038;2023-11-19T23:24:18;98837.31;;;6.83;100.00
65054;BME280;51639;47.828;35.038;2023-11-19T23:39:20;98837.22;;;6.87;100.00
65054;BME280;51639;47.828;35.038;2023-11-19T23:54:22;98844.13;;;6.88;100.00
